Pagrindinis puslapis
METAR-TAF:

METAR-TAF

Oro uostai :

Edremit, Turkija

platuma: 39-33-16N, ilguma: 27-00-49E, Aukštis: 15 m

Dabartinis oras

Ataskaita buvo paskelbta 25 minutes, ne 07:50 UTC
Vėjas 13 kt iš Vakarų/Šiaurės Vakarų
Temperatūra 21°C
Drėgmė 69%
Slėgis 1013 hPa
Matomumas 10 km arba daugiau
Išsisklaidę debesys ne aukštis 3500 ft

METAR: LTFD 140750Z 29013KT 9999 SCT035 21/15 Q1013

Laikas: 11:15 (08:15 UTC)

Prognozė

Ataskaita buvo paskelbta 3 valandos ir 35 minutes, ne 04:40 UTC
Prognozė galioja nuo 14 metu 06 UTC su 14 metu 15 UTC
Vėjas 8 kt iš Vakarų/Pietvakarių
Matomumas 10 km arba daugiau
Mažai debesys ne aukštis 3500 ft

TAF: LTFD 140440Z 1406/1415 25008KT 9999 FEW035

Orai ataskaitas ir orų prognozės (METAR, TAF).

turimą stotys yra geltonos ir raudonos taškus žemėlapyje.

Perkelti pele per norėdami pamatyti stoties vardą.

Tada spustelėkite, norėdami matyti oro stebėjimo ir prognozės.

Norėdami pakeisti žemėlapį: spustelėkite ant žalios mygtukų su juodo kryžiaus žemyn,; žalią mygtuką su brūkšneliu, jei norite nutolinti; arba žalių rodyklių gretimoms žemėlapius.


METAR-TAF: